San Diego, California
Traffic Map
Current Weather Conditions
San Diego, California
Few Clouds
Few Clouds
15°
Feels Like: 15°
Wind Chill: 15° Ceiling: Unl
Heat Index: 15° Visibility: 10mi
Dew Point: Wind: 0mph
Humidity: 67% Direction: ° ()
Pressure: 30.17in Gusts: 0mph
Raw Report DataKSAN 050551Z 00000KT 10SM FEW250 15/09 A3017 RMK AO2 SLP215 T01500089 10189 20144 51015
Traffic Incident Summary
Active as of:
Severity:
Category:
InformationThere was an issue retrieving the traffic information for this location. Please try a different location or try again shortly.
Advertisements
Track Severe Weather on mobile